createdAt,value
2023-02-27T00:00:26.249Z,97593.81
2023-02-27T00:02:54.342Z,97575.91
2023-02-27T00:05:23.161Z,97575.03
2023-02-27T00:07:51.983Z,97567.63
2023-02-27T00:10:20.356Z,97570.47
2023-02-27T00:12:48.014Z,97545.75
2023-02-27T00:15:18.889Z,97555.84
2023-02-27T00:17:46.870Z,97547.66
2023-02-27T00:20:16.407Z,97551.13
2023-02-27T00:22:44.992Z,97542.03
2023-02-27T00:25:13.589Z,97518.16
2023-02-27T00:27:41.445Z,97517.97
2023-02-27T00:30:12.660Z,97518.06
2023-02-27T00:32:40.686Z,97522.44
2023-02-27T00:35:10.884Z,97513.50
2023-02-27T00:37:38.542Z,97505.63
2023-02-27T00:40:07.197Z,97501.81
2023-02-27T00:42:34.998Z,97491.09
2023-02-27T00:45:04.485Z,97473.78
2023-02-27T00:47:33.597Z,97492.13
2023-02-27T00:50:01.669Z,97475.59
2023-02-27T00:52:31.052Z,97489.50
2023-02-27T00:55:00.019Z,97465.63
2023-02-27T00:57:28.806Z,97447.91
2023-02-27T00:59:56.830Z,97444.28
2023-02-27T01:02:25.091Z,97420.94
2023-02-27T01:04:53.913Z,97420.72
2023-02-27T01:07:21.567Z,97426.31
2023-02-27T01:09:49.118Z,97415.53
2023-02-27T01:12:16.730Z,97406.66
2023-02-27T01:14:45.220Z,97399.63
2023-02-27T01:17:13.047Z,97423.34
2023-02-27T01:19:40.707Z,97410.81
2023-02-27T01:22:08.301Z,97403.72
2023-02-27T01:24:35.919Z,97435.91
2023-02-27T01:27:03.761Z,97410.59
2023-02-27T01:29:32.218Z,97405.91
2023-02-27T01:31:59.964Z,97382.59
2023-02-27T01:34:27.721Z,97377.56
2023-02-27T01:36:55.350Z,97406.72
2023-02-27T01:39:22.875Z,97390.56
2023-02-27T01:41:50.516Z,97382.59
2023-02-27T01:44:18.171Z,97377.81
2023-02-27T01:46:45.832Z,97390.50
2023-02-27T01:49:30.107Z,97393.03
2023-02-27T01:52:06.354Z,97381.75
2023-02-27T01:54:37.390Z,97364.13
2023-02-27T01:57:07.090Z,97379.63
2023-02-27T01:59:36.272Z,97372.81
2023-02-27T02:02:08.503Z,97375.13
2023-02-27T02:04:38.754Z,97370.84
2023-02-27T02:07:12.919Z,97356.81
2023-02-27T02:09:44.959Z,97371.03
2023-02-27T02:12:15.368Z,97345.75
2023-02-27T02:14:44.752Z,97363.09
2023-02-27T02:17:36.169Z,97344.69
2023-02-27T02:20:48.998Z,97350.25
2023-02-27T02:24:04.210Z,97349.13
2023-02-27T02:26:51.511Z,97358.09
2023-02-27T02:29:41.248Z,97349.41
2023-02-27T02:32:45.690Z,97349.88
2023-02-27T02:35:42.831Z,97339.69
2023-02-27T02:38:28.143Z,97328.00
2023-02-27T02:41:04.642Z,97341.34
2023-02-27T02:44:12.958Z,97333.41
2023-02-27T02:47:02.858Z,97339.28
2023-02-27T02:49:44.264Z,97329.28
2023-02-27T02:52:24.151Z,97332.22
2023-02-27T02:55:10.672Z,97315.97
2023-02-27T02:58:10.919Z,97317.84
2023-02-27T03:01:04.397Z,97319.19
2023-02-27T03:03:39.767Z,97303.41
2023-02-27T03:06:17.749Z,97319.69
2023-02-27T03:08:56.120Z,97326.75
2023-02-27T03:11:28.308Z,97332.44
2023-02-27T03:14:35.223Z,97316.97
2023-02-27T03:17:17.124Z,97320.28
2023-02-27T03:20:04.906Z,97319.41
2023-02-27T03:22:37.601Z,97316.16
2023-02-27T03:25:08.530Z,97318.72
2023-02-27T03:27:45.728Z,97320.69
2023-02-27T03:30:28.893Z,97315.59
2023-02-27T03:33:26.012Z,97314.31
2023-02-27T03:36:12.594Z,97312.28
2023-02-27T03:39:01.881Z,97317.56
2023-02-27T03:41:35.751Z,97303.81
2023-02-27T03:44:52.403Z,97294.72
2023-02-27T03:47:20.952Z,97314.03
2023-02-27T03:49:51.578Z,97299.13
2023-02-27T03:52:22.963Z,97292.78
2023-02-27T03:55:11.796Z,97303.81
2023-02-27T03:57:41.515Z,97294.03
2023-02-27T04:00:13.163Z,97300.59
2023-02-27T04:02:47.274Z,97294.44
2023-02-27T04:05:19.164Z,97292.34
2023-02-27T04:08:33.258Z,97304.78
2023-02-27T04:11:32.812Z,97296.78
2023-02-27T04:14:21.252Z,97288.44
2023-02-27T04:16:53.555Z,97286.88
2023-02-27T04:19:54.674Z,97282.66
2023-02-27T04:22:36.033Z,97299.50
2023-02-27T04:25:28.239Z,97284.72
2023-02-27T04:28:17.687Z,97275.22
2023-02-27T04:31:19.756Z,97274.72
2023-02-27T04:34:09.071Z,97269.91
2023-02-27T04:36:45.524Z,97242.22
2023-02-27T04:39:25.148Z,97261.00
2023-02-27T04:41:59.559Z,97249.72
2023-02-27T04:44:30.891Z,97254.44
2023-02-27T04:47:01.366Z,97258.25
2023-02-27T04:49:33.799Z,97260.88
2023-02-27T04:52:14.506Z,97259.41
2023-02-27T04:55:00.278Z,97250.13
2023-02-27T04:57:33.045Z,97243.75
2023-02-27T05:00:06.478Z,97238.22
2023-02-27T05:02:40.838Z,97230.50
2023-02-27T05:05:16.845Z,97214.44
2023-02-27T05:07:51.801Z,97219.16
2023-02-27T05:10:36.991Z,97225.41
2023-02-27T05:13:13.596Z,97215.47
2023-02-27T05:15:48.009Z,97227.75
2023-02-27T05:18:19.751Z,97223.16
2023-02-27T05:20:56.210Z,97207.50
2023-02-27T05:24:10.166Z,97205.97
2023-02-27T05:27:11.659Z,97196.09
2023-02-27T05:30:01.159Z,97214.88
2023-02-27T05:32:43.246Z,97197.16
2023-02-27T05:35:38.797Z,97217.28
2023-02-27T05:38:22.382Z,97200.13
2023-02-27T05:41:00.204Z,97195.16
2023-02-27T05:43:50.984Z,97196.09
2023-02-27T05:46:32.819Z,97192.69
2023-02-27T05:49:11.067Z,97192.56
2023-02-27T05:51:40.688Z,97202.72
2023-02-27T05:54:16.477Z,97191.16
2023-02-27T05:56:49.984Z,97195.25
2023-02-27T05:59:34.785Z,97185.56
2023-02-27T06:02:02.585Z,97182.28
2023-02-27T06:04:30.181Z,97183.53
2023-02-27T06:06:58.320Z,97183.69
2023-02-27T06:09:25.871Z,97189.91
2023-02-27T06:11:53.440Z,97183.50
2023-02-27T06:14:20.857Z,97183.66
2023-02-27T06:16:48.401Z,97179.22
2023-02-27T06:19:15.993Z,97185.28
2023-02-27T06:21:43.547Z,97167.47
2023-02-27T06:24:11.173Z,97180.75
2023-02-27T06:26:38.842Z,97179.00
2023-02-27T06:29:06.375Z,97166.47
2023-02-27T06:31:33.905Z,97170.81
2023-02-27T06:34:01.464Z,97164.69
2023-02-27T06:36:30.453Z,97155.03
2023-02-27T06:38:58.517Z,97165.88
2023-02-27T06:41:26.114Z,97156.34
2023-02-27T06:43:53.637Z,97150.22
2023-02-27T06:46:21.223Z,97154.78
2023-02-27T06:48:48.801Z,97143.28
2023-02-27T06:51:16.565Z,97144.75
2023-02-27T06:53:44.069Z,97136.78
2023-02-27T06:56:11.742Z,97134.16
2023-02-27T06:58:39.445Z,97121.97
2023-02-27T07:01:07.131Z,97128.00
2023-02-27T07:03:34.692Z,97123.22
2023-02-27T07:06:02.943Z,97119.16
2023-02-27T07:08:30.752Z,97124.03
2023-02-27T07:10:58.646Z,97137.16
2023-02-27T07:13:26.161Z,97129.16
2023-02-27T07:15:54.395Z,97122.91
2023-02-27T07:18:22.058Z,97118.00
2023-02-27T07:20:55.587Z,97115.09
2023-02-27T07:23:23.905Z,97101.97
2023-02-27T07:25:51.608Z,97102.97
2023-02-27T07:28:19.605Z,97099.03
2023-02-27T07:30:47.314Z,97092.75
2023-02-27T07:33:14.908Z,97098.41
2023-02-27T07:35:42.511Z,97094.47
2023-02-27T07:38:10.032Z,97093.53
2023-02-27T07:40:37.594Z,97081.91
2023-02-27T07:43:05.148Z,97087.56
2023-02-27T07:45:32.700Z,97067.28
2023-02-27T07:48:00.214Z,97078.84
2023-02-27T07:50:27.893Z,97075.34
2023-02-27T07:52:55.632Z,97083.19
2023-02-27T07:55:23.258Z,97078.75
2023-02-27T07:57:50.865Z,97066.25
2023-02-27T08:00:18.856Z,97074.44
2023-02-27T08:02:46.582Z,97069.19
2023-02-27T08:05:14.218Z,97058.13
2023-02-27T08:07:41.746Z,97044.56
2023-02-27T08:10:10.162Z,97050.50
2023-02-27T08:12:37.650Z,97045.25
2023-02-27T08:15:05.950Z,97040.38
2023-02-27T08:17:33.452Z,97043.13
2023-02-27T08:20:00.928Z,97032.06
2023-02-27T08:22:28.828Z,97023.00
2023-02-27T08:24:56.382Z,97022.78
2023-02-27T08:27:24.311Z,97005.28
2023-02-27T08:29:51.952Z,97009.94
2023-02-27T08:32:19.735Z,97002.63
2023-02-27T08:34:47.313Z,97000.38
2023-02-27T08:37:14.770Z,96996.91
2023-02-27T08:39:42.396Z,96989.16
2023-02-27T08:42:10.266Z,96988.03
2023-02-27T08:44:37.943Z,96977.66
2023-02-27T08:47:05.606Z,96972.16
2023-02-27T08:49:33.252Z,96961.19
2023-02-27T08:52:01.493Z,96965.41
2023-02-27T08:54:29.043Z,96961.16
2023-02-27T08:56:56.620Z,96965.06
2023-02-27T08:59:24.257Z,96965.72
2023-02-27T09:01:51.804Z,96955.44
2023-02-27T09:04:19.270Z,96967.72
2023-02-27T09:06:47.075Z,96955.94
2023-02-27T09:09:14.674Z,96957.50
2023-02-27T09:11:42.241Z,96946.94
2023-02-27T09:14:09.744Z,96950.41
2023-02-27T09:16:37.339Z,96949.22
2023-02-27T09:19:05.137Z,96940.59
2023-02-27T09:21:32.709Z,96937.16
2023-02-27T09:24:07.372Z,96921.34
2023-02-27T09:26:46.504Z,96918.78
2023-02-27T09:29:14.321Z,96909.78
2023-02-27T09:31:42.407Z,96912.28
2023-02-27T09:34:10.033Z,96908.78
2023-02-27T09:36:37.598Z,96906.09
2023-02-27T09:39:05.272Z,96907.22
2023-02-27T09:42:15.921Z,96897.69
2023-02-27T09:44:49.936Z,96886.81
2023-02-27T09:47:37.727Z,96881.78
2023-02-27T09:50:28.102Z,96893.66
2023-02-27T09:52:55.808Z,96887.50
2023-02-27T09:55:25.454Z,96884.50
2023-02-27T09:58:16.489Z,96890.50
2023-02-27T10:00:58.279Z,96873.34
2023-02-27T10:03:31.699Z,96883.94
2023-02-27T10:06:27.495Z,96877.97
2023-02-27T10:09:22.923Z,96867.91
2023-02-27T10:12:17.756Z,96864.28
2023-02-27T10:14:50.909Z,96865.44
2023-02-27T10:17:42.618Z,96862.88
2023-02-27T10:20:32.761Z,96858.47
2023-02-27T10:23:05.535Z,96856.06
2023-02-27T10:25:39.572Z,96846.66
2023-02-27T10:28:16.009Z,96845.22
2023-02-27T10:30:48.763Z,96839.75
2023-02-27T10:33:48.366Z,96841.59
2023-02-27T10:36:32.555Z,96847.59
2023-02-27T10:39:09.292Z,96839.28
2023-02-27T10:41:40.009Z,96833.38
2023-02-27T10:44:07.845Z,96828.13
2023-02-27T10:46:40.271Z,96827.06
2023-02-27T10:49:19.068Z,96827.06
2023-02-27T10:52:04.803Z,96820.53
2023-02-27T10:54:32.389Z,96804.81
2023-02-27T10:57:05.670Z,96812.78
2023-02-27T10:59:40.707Z,96810.09
2023-02-27T11:02:17.300Z,96804.09
2023-02-27T11:04:54.235Z,96807.84
2023-02-27T11:07:39.286Z,96795.94
2023-02-27T11:10:15.466Z,96788.19
2023-02-27T11:12:58.119Z,96782.13
2023-02-27T11:15:29.364Z,96775.88
2023-02-27T11:18:19.844Z,96765.56
2023-02-27T11:20:50.994Z,96761.28
2023-02-27T11:23:24.310Z,96765.13
2023-02-27T11:26:09.493Z,96757.06
2023-02-27T11:28:37.022Z,96754.94
2023-02-27T11:31:15.498Z,96750.50
2023-02-27T11:33:54.936Z,96743.50
2023-02-27T11:36:25.534Z,96743.56
2023-02-27T11:38:55.137Z,96737.00
2023-02-27T11:41:34.712Z,96729.41
2023-02-27T11:44:05.841Z,96727.50
2023-02-27T11:46:47.907Z,96725.06
2023-02-27T11:49:54.393Z,96735.53
2023-02-27T11:52:38.584Z,96720.94
2023-02-27T11:55:10.765Z,96719.41
2023-02-27T11:57:44.226Z,96721.31
2023-02-27T12:00:18.312Z,96709.03
2023-02-27T12:03:01.185Z,96708.63
2023-02-27T12:05:33.480Z,96723.78
2023-02-27T12:08:12.305Z,96716.56
2023-02-27T12:11:11.492Z,96708.19
2023-02-27T12:13:47.540Z,96709.88
2023-02-27T12:16:33.302Z,96710.34
2023-02-27T12:19:26.845Z,96703.34
2023-02-27T12:22:14.087Z,96703.22
2023-02-27T12:24:51.698Z,96706.41
2023-02-27T12:27:26.753Z,96699.81
2023-02-27T12:30:13.714Z,96697.69
2023-02-27T12:32:54.881Z,96686.56
2023-02-27T12:35:31.273Z,96683.75
2023-02-27T12:37:59.321Z,96681.63
2023-02-27T12:41:01.573Z,96670.38
2023-02-27T12:43:53.278Z,96688.34
2023-02-27T12:46:44.310Z,96681.38
2023-02-27T12:49:15.161Z,96685.72
2023-02-27T12:51:52.268Z,96673.06
2023-02-27T12:54:46.585Z,96687.16
2023-02-27T12:57:32.941Z,96669.66
2023-02-27T13:00:15.453Z,96649.91
2023-02-27T13:03:11.916Z,96661.22
2023-02-27T13:05:53.353Z,96649.72
2023-02-27T13:08:33.258Z,96647.06
2023-02-27T13:11:25.751Z,96649.03
2023-02-27T13:13:56.914Z,96650.78
2023-02-27T13:16:46.922Z,96645.16
2023-02-27T13:19:16.418Z,96646.19
2023-02-27T13:21:43.979Z,96642.13
2023-02-27T13:24:24.409Z,96635.41
2023-02-27T13:27:19.754Z,96630.06
2023-02-27T13:30:05.610Z,96625.59
2023-02-27T13:32:45.407Z,96641.66
2023-02-27T13:35:36.500Z,96645.09
2023-02-27T13:38:25.073Z,96641.13
2023-02-27T13:40:52.893Z,96632.97
2023-02-27T13:43:53.610Z,96642.56
2023-02-27T13:46:32.164Z,96641.75
2023-02-27T13:49:29.343Z,96642.97
2023-02-27T13:52:00.809Z,96632.03
2023-02-27T13:54:41.113Z,96627.97
2023-02-27T13:57:19.454Z,96621.16
2023-02-27T14:00:24.132Z,96620.84
2023-02-27T14:03:26.196Z,96613.41
2023-02-27T14:05:58.725Z,96609.31
2023-02-27T14:08:29.992Z,96618.47
2023-02-27T14:11:03.155Z,96613.16
2023-02-27T14:13:46.014Z,96606.75
2023-02-27T14:16:39.484Z,96600.31
2023-02-27T14:19:16.228Z,96609.91
2023-02-27T14:22:14.430Z,96616.78
2023-02-27T14:25:01.706Z,96610.63
2023-02-27T14:27:38.939Z,96615.25
2023-02-27T14:30:22.270Z,96610.97
2023-02-27T14:32:57.659Z,96605.69
2023-02-27T14:35:32.518Z,96602.25
2023-02-27T14:38:08.434Z,96599.50
2023-02-27T14:40:44.003Z,96596.34
2023-02-27T14:43:45.408Z,96588.91
2023-02-27T14:46:23.934Z,96591.09
2023-02-27T14:49:04.100Z,96581.84
2023-02-27T14:51:37.634Z,96579.94
2023-02-27T14:54:10.369Z,96595.69
2023-02-27T14:56:38.076Z,96592.47
2023-02-27T14:59:27.201Z,96594.13
2023-02-27T15:01:57.457Z,96578.44
2023-02-27T15:04:28.096Z,96569.41
2023-02-27T15:06:57.961Z,96577.38
2023-02-27T15:09:40.900Z,96583.53
2023-02-27T15:12:10.654Z,96576.91
2023-02-27T15:14:40.228Z,96580.28
2023-02-27T15:17:23.741Z,96596.09
2023-02-27T15:19:52.910Z,96589.84
2023-02-27T15:22:37.950Z,96583.91
2023-02-27T15:25:08.405Z,96594.63
2023-02-27T15:27:40.145Z,96611.28
2023-02-27T15:30:08.687Z,96606.94
2023-02-27T15:32:42.613Z,96612.28
2023-02-27T15:35:28.446Z,96625.50
2023-02-27T15:37:58.356Z,96623.50
2023-02-27T15:40:29.549Z,96633.25
2023-02-27T15:42:58.822Z,96622.66
2023-02-27T15:45:36.546Z,96628.25
2023-02-27T15:48:05.492Z,96626.81
2023-02-27T15:50:43.388Z,96615.81
2023-02-27T15:53:19.421Z,96626.31
2023-02-27T15:56:06.501Z,96624.25
2023-02-27T15:58:37.613Z,96633.47
2023-02-27T16:01:14.210Z,96627.47
2023-02-27T16:03:53.567Z,96612.50
2023-02-27T16:06:30.501Z,96625.72
2023-02-27T16:09:00.615Z,96609.94
2023-02-27T16:11:34.520Z,96619.59
2023-02-27T16:14:02.151Z,96608.69
2023-02-27T16:16:36.575Z,96608.53
2023-02-27T16:19:31.148Z,96613.22
2023-02-27T16:22:17.907Z,96606.38
2023-02-27T16:24:46.224Z,96606.16
2023-02-27T16:27:25.138Z,96615.25
2023-02-27T16:29:56.117Z,96615.56
2023-02-27T16:32:27.736Z,96628.94
2023-02-27T16:35:23.118Z,96632.13
2023-02-27T16:37:53.848Z,96628.50
2023-02-27T16:40:24.856Z,96634.69
2023-02-27T16:42:53.381Z,96664.03
2023-02-27T16:45:27.098Z,96653.41
2023-02-27T16:47:57.711Z,96663.50
2023-02-27T16:50:30.889Z,96662.34
2023-02-27T16:52:58.398Z,96680.03
2023-02-27T16:55:27.168Z,96678.84
2023-02-27T16:57:57.604Z,96670.63
2023-02-27T17:00:25.257Z,96689.81
2023-02-27T17:02:52.964Z,96686.31
2023-02-27T17:05:20.663Z,96692.44
2023-02-27T17:07:49.059Z,96689.41
2023-02-27T17:10:19.119Z,96702.50
2023-02-27T17:12:48.202Z,96703.13
2023-02-27T17:15:16.540Z,96686.38
2023-02-27T17:17:44.452Z,96690.47
2023-02-27T17:20:14.283Z,96676.94
2023-02-27T17:22:44.898Z,96695.88
2023-02-27T17:25:13.847Z,96707.16
2023-02-27T17:27:44.054Z,96715.22
2023-02-27T17:30:12.602Z,96709.25
2023-02-27T17:32:40.260Z,96711.34
2023-02-27T17:35:08.282Z,96706.16
2023-02-27T17:37:35.840Z,96701.03
2023-02-27T17:40:04.976Z,96707.47
2023-02-27T17:42:33.018Z,96722.41
2023-02-27T17:45:01.772Z,96721.25
2023-02-27T17:47:31.285Z,96715.97
2023-02-27T17:49:58.965Z,96715.31
2023-02-27T17:52:27.727Z,96727.00
2023-02-27T17:54:55.944Z,96722.56
2023-02-27T17:57:23.579Z,96733.34
2023-02-27T17:59:51.112Z,96727.47
2023-02-27T18:02:18.773Z,96733.50
2023-02-27T18:04:47.197Z,96739.63
2023-02-27T18:07:14.889Z,96745.19
2023-02-27T18:09:42.473Z,96742.72
2023-02-27T18:12:10.027Z,96748.44
2023-02-27T18:14:37.553Z,96745.25
2023-02-27T18:17:07.196Z,96737.97
2023-02-27T18:19:34.944Z,96735.66
2023-02-27T18:22:02.484Z,96740.47
2023-02-27T18:24:30.033Z,96728.22
2023-02-27T18:26:58.132Z,96726.84
2023-02-27T18:29:25.674Z,96720.66
2023-02-27T18:31:55.157Z,96723.47
2023-02-27T18:34:24.276Z,96722.38
2023-02-27T18:36:57.212Z,96720.41
2023-02-27T18:39:28.137Z,96713.09
2023-02-27T18:41:55.779Z,96704.31
2023-02-27T18:44:23.348Z,96714.91
2023-02-27T18:46:51.197Z,96707.50
2023-02-27T18:49:18.965Z,96723.09
2023-02-27T18:51:46.842Z,96722.22
2023-02-27T18:54:15.344Z,96721.59
2023-02-27T18:56:42.949Z,96725.47
2023-02-27T18:59:12.452Z,96709.81
2023-02-27T19:01:40.009Z,96696.09
2023-02-27T19:04:09.860Z,96682.41
2023-02-27T19:06:41.215Z,96698.25
2023-02-27T19:09:11.288Z,96685.25
2023-02-27T19:11:39.231Z,96686.47
2023-02-27T19:14:09.502Z,96697.50
2023-02-27T19:16:37.178Z,96678.06
2023-02-27T19:19:05.968Z,96684.84
2023-02-27T19:21:34.250Z,96679.25
2023-02-27T19:24:02.124Z,96676.06
2023-02-27T19:26:30.340Z,96686.59
2023-02-27T19:28:58.088Z,96673.50
2023-02-27T19:31:25.981Z,96693.47
2023-02-27T19:33:53.732Z,96675.03
2023-02-27T19:36:23.172Z,96672.44
2023-02-27T19:38:50.936Z,96659.09
2023-02-27T19:41:19.659Z,96678.56
2023-02-27T19:43:48.333Z,96684.41
2023-02-27T19:46:24.349Z,96677.09
2023-02-27T19:49:00.570Z,96668.50
2023-02-27T19:51:28.900Z,96677.19
2023-02-27T19:53:59.768Z,96687.94
2023-02-27T19:56:31.784Z,96677.63
2023-02-27T19:59:03.386Z,96665.56
2023-02-27T20:01:34.563Z,96664.97
2023-02-27T20:04:03.842Z,96648.81
2023-02-27T20:06:34.086Z,96641.66
2023-02-27T20:09:01.705Z,96640.13
2023-02-27T20:11:31.230Z,96644.38
2023-02-27T20:13:59.230Z,96623.97
2023-02-27T20:16:30.382Z,96650.31
2023-02-27T20:18:58.415Z,96646.63
2023-02-27T20:21:29.039Z,96660.47
2023-02-27T20:23:58.443Z,96656.72
2023-02-27T20:26:34.013Z,96659.56
2023-02-27T20:29:08.950Z,96662.28
2023-02-27T20:31:38.240Z,96661.44
2023-02-27T20:34:07.067Z,96650.94
2023-02-27T20:36:35.950Z,96644.50
2023-02-27T20:39:04.793Z,96656.47
2023-02-27T20:48:05.511Z,96602.56
2023-02-27T20:50:35.151Z,96643.38
2023-02-27T20:57:25.476Z,96628.13
2023-02-27T21:12:47.321Z,96631.66
2023-02-27T21:17:57.356Z,96634.81
2023-02-27T21:20:24.903Z,96643.16
2023-02-27T21:22:56.056Z,96641.63
2023-02-27T21:25:24.599Z,96649.13
2023-02-27T21:27:52.278Z,96651.53
2023-02-27T21:30:20.090Z,96634.16
2023-02-27T21:32:47.651Z,96639.22
2023-02-27T21:35:16.595Z,96649.03
2023-02-27T21:37:47.025Z,96645.50
2023-02-27T21:40:15.311Z,96628.66
2023-02-27T21:42:46.028Z,96629.50
2023-02-27T21:45:13.603Z,96631.59
2023-02-27T21:47:41.146Z,96638.38
2023-02-27T21:50:14.360Z,96643.53
2023-02-27T21:52:42.631Z,96633.75
2023-02-27T21:55:12.062Z,96641.31
2023-02-27T21:57:41.160Z,96632.03
2023-02-27T22:00:13.972Z,96644.22
2023-02-27T22:02:41.730Z,96630.44
2023-02-27T22:05:09.587Z,96642.22
2023-02-27T22:07:37.820Z,96632.25
2023-02-27T22:10:05.758Z,96637.41
2023-02-27T22:12:33.277Z,96632.81
2023-02-27T22:15:00.869Z,96622.84
2023-02-27T22:17:28.592Z,96630.00
2023-02-27T22:19:56.217Z,96630.06
2023-02-27T22:22:24.527Z,96620.09
2023-02-27T22:24:52.142Z,96622.94
2023-02-27T22:27:19.804Z,96630.31
2023-02-27T22:29:47.317Z,96630.63
2023-02-27T22:32:15.122Z,96627.16
2023-02-27T22:34:42.711Z,96627.78
2023-02-27T22:37:10.293Z,96642.22
2023-02-27T22:39:42.104Z,96626.75
2023-02-27T22:43:26.563Z,96633.31
2023-02-27T22:45:53.851Z,96629.69
2023-02-27T22:49:02.622Z,96613.53
2023-02-27T22:51:30.848Z,96623.38
2023-02-27T22:54:19.210Z,96618.94
2023-02-27T22:56:49.070Z,96607.16
2023-02-27T23:00:06.675Z,96619.72
2023-02-27T23:03:33.852Z,96600.25
2023-02-27T23:06:01.417Z,96605.75
2023-02-27T23:08:29.188Z,96614.63
2023-02-27T23:10:56.706Z,96610.22
2023-02-27T23:13:24.332Z,96609.75
2023-02-27T23:15:52.009Z,96617.97
2023-02-27T23:18:19.725Z,96615.16
2023-02-27T23:20:47.385Z,96619.25
2023-02-27T23:23:14.859Z,96605.59
2023-02-27T23:25:42.892Z,96609.88
2023-02-27T23:28:10.667Z,96598.81
2023-02-27T23:30:38.701Z,96593.88
2023-02-27T23:33:06.270Z,96589.25
2023-02-27T23:35:33.794Z,96590.53
2023-02-27T23:38:01.358Z,96588.22
2023-02-27T23:40:29.031Z,96594.81
2023-02-27T23:42:56.717Z,96587.50
2023-02-27T23:45:24.263Z,96578.66
2023-02-27T23:47:59.915Z,96573.44
2023-02-27T23:50:32.950Z,96596.56
2023-02-27T23:53:01.140Z,96570.47
2023-02-27T23:55:30.597Z,96583.97
2023-02-27T23:58:00.040Z,96578.81
